createdAt,value
2023-01-12T00:01:47.245Z,0.88
2023-01-12T00:04:20.826Z,0.90
2023-01-12T00:06:54.520Z,0.92
2023-01-12T00:09:28.156Z,0.94
2023-01-12T00:12:01.568Z,0.97
2023-01-12T00:14:37.431Z,0.92
2023-01-12T00:17:12.559Z,0.82
2023-01-12T00:19:45.548Z,0.92
2023-01-12T00:22:19.844Z,0.82
2023-01-12T00:24:53.087Z,0.80
2023-01-12T00:27:26.388Z,0.78
2023-01-12T00:30:00.559Z,0.78
2023-01-12T00:32:34.124Z,0.85
2023-01-12T00:35:07.305Z,1.03
2023-01-12T00:37:40.679Z,1.08
2023-01-12T00:40:14.520Z,0.96
2023-01-12T00:43:06.253Z,0.99
2023-01-12T00:45:39.414Z,0.91
2023-01-12T00:48:16.210Z,0.68
2023-01-12T00:50:49.877Z,0.91
2023-01-12T00:53:23.642Z,0.89
2023-01-12T00:55:56.800Z,0.92
2023-01-12T00:58:30.609Z,0.83
2023-01-12T01:01:13.275Z,0.77
2023-01-12T01:03:46.700Z,0.79
2023-01-12T01:06:20.268Z,0.78
2023-01-12T01:08:53.557Z,0.78
2023-01-12T01:11:26.390Z,0.73
2023-01-12T01:14:00.008Z,0.75
2023-01-12T01:16:33.600Z,0.81
2023-01-12T01:19:06.701Z,0.81
2023-01-12T01:21:40.238Z,0.85
2023-01-12T01:24:15.110Z,0.84
2023-01-12T01:26:48.325Z,0.99
2023-01-12T01:29:21.690Z,1.02
2023-01-12T01:31:56.799Z,1.02
2023-01-12T01:34:29.903Z,1.22
2023-01-12T01:37:03.040Z,1.12
2023-01-12T01:39:36.327Z,1.12
2023-01-12T01:42:30.493Z,1.10
2023-01-12T01:45:06.694Z,1.09
2023-01-12T01:47:47.378Z,0.97
2023-01-12T01:50:25.890Z,0.92
2023-01-12T01:53:10.835Z,0.85
2023-01-12T01:55:55.426Z,0.92
2023-01-12T01:59:07.837Z,0.79
2023-01-12T02:01:42.328Z,0.73
2023-01-12T02:04:16.530Z,0.75
2023-01-12T02:06:49.821Z,0.76
2023-01-12T02:09:26.938Z,0.75
2023-01-12T02:12:18.955Z,0.67
2023-01-12T02:15:13.042Z,0.69
2023-01-12T02:18:26.332Z,0.76
2023-01-12T02:21:19.430Z,0.82
2023-01-12T02:24:24.008Z,0.88
2023-01-12T02:27:16.898Z,0.96
2023-01-12T02:30:02.562Z,0.86
2023-01-12T02:32:49.213Z,0.85
2023-01-12T02:35:35.822Z,0.96
2023-01-12T02:38:20.443Z,0.97
2023-01-12T02:41:16.063Z,0.87
2023-01-12T02:43:49.520Z,0.76
2023-01-12T02:46:28.437Z,0.85
2023-01-12T02:49:12.538Z,0.88
2023-01-12T02:52:01.895Z,0.96
2023-01-12T02:54:37.548Z,0.96
2023-01-12T02:57:12.829Z,0.85
2023-01-12T02:59:47.280Z,0.73
2023-01-12T03:02:23.605Z,0.51
2023-01-12T03:04:56.723Z,0.74
2023-01-12T03:07:43.638Z,0.72
2023-01-12T03:10:36.260Z,0.55
2023-01-12T03:13:14.467Z,0.60
2023-01-12T03:15:52.744Z,0.73
2023-01-12T03:18:42.167Z,0.78
2023-01-12T03:21:24.492Z,0.84
2023-01-12T03:24:20.801Z,0.73
2023-01-12T03:26:58.139Z,0.56
2023-01-12T03:29:46.174Z,0.67
2023-01-12T03:32:20.591Z,0.75
2023-01-12T03:34:54.828Z,0.60
2023-01-12T03:37:52.016Z,0.58
2023-01-12T03:40:51.467Z,0.40
2023-01-12T03:43:45.849Z,0.42
2023-01-12T03:46:26.251Z,0.44
2023-01-12T03:49:21.380Z,0.25
2023-01-12T03:51:57.683Z,0.25
2023-01-12T03:54:32.890Z,0.26
2023-01-12T03:57:08.349Z,0.22
2023-01-12T03:59:41.012Z,0.39
2023-01-12T04:02:14.989Z,0.27
2023-01-12T04:04:48.278Z,0.43
2023-01-12T04:07:21.374Z,0.54
2023-01-12T04:09:54.939Z,0.66
2023-01-12T04:12:27.683Z,0.73
2023-01-12T04:15:01.023Z,0.78
2023-01-12T04:17:34.561Z,0.76
2023-01-12T04:20:09.913Z,0.72
2023-01-12T04:22:45.930Z,0.85
2023-01-12T04:25:20.886Z,0.82
2023-01-12T04:28:01.391Z,0.92
2023-01-12T04:30:35.309Z,0.89
2023-01-12T04:33:11.999Z,0.90
2023-01-12T04:35:44.878Z,0.87
2023-01-12T04:38:18.647Z,0.88
2023-01-12T04:40:59.199Z,0.87
2023-01-12T04:43:32.471Z,0.92
2023-01-12T04:46:13.970Z,0.91
2023-01-12T04:48:47.299Z,0.91
2023-01-12T04:51:20.346Z,0.96
2023-01-12T04:53:53.885Z,0.98
2023-01-12T04:56:27.020Z,0.94
2023-01-12T04:59:01.553Z,0.93
2023-01-12T05:01:34.944Z,0.91
2023-01-12T05:04:08.254Z,0.98
2023-01-12T05:06:41.495Z,1.04
2023-01-12T05:09:32.697Z,1.04
2023-01-12T05:12:05.507Z,1.24
2023-01-12T05:14:43.257Z,1.20
2023-01-12T05:17:16.600Z,1.47
2023-01-12T05:19:50.159Z,1.53
2023-01-12T05:22:23.431Z,1.53
2023-01-12T05:24:56.730Z,1.45
2023-01-12T05:27:29.872Z,1.49
2023-01-12T05:30:02.844Z,1.54
2023-01-12T05:32:39.903Z,1.62
2023-01-12T05:35:13.199Z,1.56
2023-01-12T05:37:46.635Z,1.50
2023-01-12T05:40:19.976Z,1.50
2023-01-12T05:43:18.961Z,1.49
2023-01-12T05:45:51.581Z,1.44
2023-01-12T05:48:24.424Z,1.32
2023-01-12T05:50:57.142Z,1.29
2023-01-12T05:53:30.319Z,1.37
2023-01-12T05:56:09.700Z,1.41
2023-01-12T05:58:42.517Z,1.43
2023-01-12T06:01:15.818Z,1.44
2023-01-12T06:03:55.413Z,1.37
2023-01-12T06:06:33.359Z,1.25
2023-01-12T06:09:07.146Z,1.20
2023-01-12T06:11:58.964Z,1.30
2023-01-12T06:14:32.288Z,1.33
2023-01-12T06:17:05.151Z,1.27
2023-01-12T06:19:38.253Z,1.26
2023-01-12T06:22:11.785Z,1.21
2023-01-12T06:24:48.787Z,1.22
2023-01-12T06:27:21.689Z,1.25
2023-01-12T06:29:54.894Z,1.30
2023-01-12T06:32:28.193Z,1.37
2023-01-12T06:35:07.071Z,1.42
2023-01-12T06:37:49.466Z,1.36
2023-01-12T06:40:23.076Z,1.36
2023-01-12T06:42:56.360Z,1.46
2023-01-12T06:45:29.528Z,1.53
2023-01-12T06:48:03.093Z,1.39
2023-01-12T06:50:37.310Z,1.22
2023-01-12T06:53:11.553Z,1.22
2023-01-12T06:55:52.556Z,1.29
2023-01-12T06:58:26.228Z,1.38
2023-01-12T07:01:04.274Z,1.28
2023-01-12T07:03:37.837Z,1.18
2023-01-12T07:06:11.057Z,1.24
2023-01-12T07:08:44.359Z,1.32
2023-01-12T07:11:18.158Z,1.28
2023-01-12T07:13:51.343Z,1.38
2023-01-12T07:16:24.131Z,1.49
2023-01-12T07:18:57.288Z,1.58
2023-01-12T07:21:30.386Z,1.71
2023-01-12T07:24:03.658Z,1.84
2023-01-12T07:26:37.299Z,1.96
2023-01-12T07:29:11.737Z,2.06
2023-01-12T07:31:45.854Z,2.14
2023-01-12T07:34:19.070Z,2.18
2023-01-12T07:36:53.238Z,2.25
2023-01-12T07:39:26.856Z,2.28
2023-01-12T07:42:21.518Z,2.22
2023-01-12T07:44:55.187Z,2.30
2023-01-12T07:47:28.399Z,2.30
2023-01-12T07:50:01.448Z,2.30
2023-01-12T07:52:35.374Z,2.34
2023-01-12T07:55:08.922Z,2.20
2023-01-12T07:57:42.217Z,2.12
2023-01-12T08:00:15.896Z,2.16
2023-01-12T08:02:54.364Z,2.22
2023-01-12T08:05:27.824Z,2.29
2023-01-12T08:08:03.354Z,2.14
2023-01-12T08:10:36.431Z,2.20
2023-01-12T08:13:10.025Z,2.30
2023-01-12T08:15:50.027Z,2.28
2023-01-12T08:18:27.653Z,2.09
2023-01-12T08:21:04.174Z,2.16
2023-01-12T08:23:44.693Z,2.05
2023-01-12T08:26:24.384Z,2.17
2023-01-12T08:29:12.796Z,2.15
2023-01-12T08:31:46.457Z,2.13
2023-01-12T08:34:20.472Z,2.04
2023-01-12T08:36:54.055Z,2.04
2023-01-12T08:39:30.018Z,2.06
2023-01-12T08:42:02.958Z,2.15
2023-01-12T08:44:36.733Z,2.24
2023-01-12T08:47:23.205Z,2.26
2023-01-12T08:49:56.702Z,2.33
2023-01-12T08:52:30.380Z,2.50
2023-01-12T08:55:03.753Z,2.59
2023-01-12T08:57:36.767Z,2.61
2023-01-12T09:00:10.974Z,2.77
2023-01-12T09:02:44.830Z,2.69
2023-01-12T09:05:18.506Z,2.76
2023-01-12T09:07:52.714Z,2.67
2023-01-12T09:10:26.138Z,2.58
2023-01-12T09:12:59.931Z,2.76
2023-01-12T09:15:33.362Z,2.77
2023-01-12T09:18:06.942Z,2.75
2023-01-12T09:20:39.988Z,2.78
2023-01-12T09:23:13.532Z,2.92
2023-01-12T09:25:47.234Z,3.04
2023-01-12T09:28:20.971Z,3.18
2023-01-12T09:30:54.571Z,3.31
2023-01-12T09:33:28.276Z,3.46
2023-01-12T09:36:11.420Z,3.50
2023-01-12T09:38:46.059Z,3.42
2023-01-12T09:42:08.870Z,3.48
2023-01-12T09:45:02.576Z,3.53
2023-01-12T09:47:57.132Z,3.59
2023-01-12T09:50:40.484Z,3.56
2023-01-12T09:53:19.658Z,3.54
2023-01-12T09:56:27.974Z,3.53
2023-01-12T09:59:14.038Z,3.48
2023-01-12T10:01:47.495Z,3.60
2023-01-12T10:04:21.494Z,3.64
2023-01-12T10:06:55.190Z,3.69
2023-01-12T10:09:28.129Z,3.69
2023-01-12T10:12:19.584Z,3.58
2023-01-12T10:15:09.306Z,3.51
2023-01-12T10:17:52.213Z,3.58
2023-01-12T10:20:40.077Z,3.61
2023-01-12T10:23:15.259Z,3.59
2023-01-12T10:26:00.211Z,3.70
2023-01-12T10:28:40.129Z,3.78
2023-01-12T10:31:23.141Z,3.82
2023-01-12T10:34:10.419Z,3.88
2023-01-12T10:36:50.178Z,4.01
2023-01-12T10:39:45.858Z,4.08
2023-01-12T10:42:45.829Z,4.14
2023-01-12T10:45:28.208Z,4.21
2023-01-12T10:48:06.827Z,4.28
2023-01-12T10:50:40.631Z,4.22
2023-01-12T10:53:22.094Z,4.27
2023-01-12T10:55:57.843Z,4.28
2023-01-12T10:58:33.620Z,4.41
2023-01-12T11:01:09.317Z,4.36
2023-01-12T11:03:42.877Z,4.38
2023-01-12T11:06:25.121Z,4.42
2023-01-12T11:08:59.085Z,4.40
2023-01-12T11:11:34.014Z,4.32
2023-01-12T11:14:11.566Z,4.30
2023-01-12T11:16:51.894Z,4.24
2023-01-12T11:19:32.856Z,4.24
2023-01-12T11:22:22.126Z,4.25
2023-01-12T11:25:04.594Z,4.24
2023-01-12T11:27:44.763Z,4.25
2023-01-12T11:30:41.608Z,4.20
2023-01-12T11:33:18.362Z,4.26
2023-01-12T11:36:11.024Z,4.26
2023-01-12T11:38:56.272Z,4.26
2023-01-12T11:42:11.820Z,4.29
2023-01-12T11:45:04.938Z,4.33
2023-01-12T11:47:51.423Z,4.35
2023-01-12T11:50:31.832Z,4.27
2023-01-12T11:53:07.798Z,4.31
2023-01-12T11:56:11.040Z,4.26
2023-01-12T11:58:52.974Z,4.28
2023-01-12T12:01:41.630Z,4.29
2023-01-12T12:04:49.923Z,4.32
2023-01-12T12:07:35.065Z,4.25
2023-01-12T12:10:33.931Z,4.32
2023-01-12T12:13:27.273Z,4.21
2023-01-12T12:16:32.939Z,4.13
2023-01-12T12:19:39.449Z,4.12
2023-01-12T12:22:32.642Z,4.14
2023-01-12T12:25:23.503Z,4.16
2023-01-12T12:28:36.980Z,4.23
2023-01-12T12:31:42.638Z,4.36
2023-01-12T12:34:55.191Z,4.41
2023-01-12T12:37:30.962Z,4.50
2023-01-12T12:40:14.539Z,4.54
2023-01-12T12:43:33.513Z,4.53
2023-01-12T12:46:17.319Z,4.49
2023-01-12T12:49:07.772Z,4.40
2023-01-12T12:51:43.195Z,4.44
2023-01-12T12:54:26.861Z,4.38
2023-01-12T12:57:00.013Z,4.32
2023-01-12T12:59:53.553Z,4.32
2023-01-12T13:02:41.829Z,4.33
2023-01-12T13:05:34.514Z,4.28
2023-01-12T13:08:17.924Z,4.34
2023-01-12T13:10:54.064Z,4.23
2023-01-12T13:13:29.974Z,4.22
2023-01-12T13:16:23.319Z,4.15
2023-01-12T13:18:56.898Z,4.11
2023-01-12T13:21:33.483Z,4.10
2023-01-12T13:24:24.440Z,4.09
2023-01-12T13:27:01.353Z,4.04
2023-01-12T13:29:42.050Z,4.02
2023-01-12T13:32:36.507Z,3.98
2023-01-12T13:35:40.909Z,4.03
2023-01-12T13:38:34.041Z,4.06
2023-01-12T13:41:09.346Z,4.04
2023-01-12T13:43:49.367Z,4.07
2023-01-12T13:46:29.720Z,4.11
2023-01-12T13:49:03.821Z,4.12
2023-01-12T13:51:52.615Z,4.05
2023-01-12T13:54:25.190Z,3.99
2023-01-12T13:57:00.368Z,3.95
2023-01-12T13:59:35.354Z,3.91
2023-01-12T14:02:20.925Z,3.79
2023-01-12T14:05:19.412Z,3.80
2023-01-12T14:08:23.157Z,3.78
2023-01-12T14:11:04.409Z,3.77
2023-01-12T14:13:54.975Z,3.74
2023-01-12T14:17:04.837Z,3.73
2023-01-12T14:19:43.370Z,3.70
2023-01-12T14:22:23.988Z,3.75
2023-01-12T14:25:09.917Z,3.79
2023-01-12T14:27:56.430Z,3.78
2023-01-12T14:30:30.710Z,3.87
2023-01-12T14:33:04.039Z,4.03
2023-01-12T14:35:37.222Z,4.09
2023-01-12T14:38:19.219Z,4.14
2023-01-12T14:40:59.103Z,4.15
2023-01-12T14:43:57.609Z,4.11
2023-01-12T14:46:39.134Z,4.10
2023-01-12T14:49:32.342Z,4.06
2023-01-12T14:52:18.732Z,4.15
2023-01-12T14:54:52.611Z,4.20
2023-01-12T14:57:36.823Z,4.21
2023-01-12T15:00:21.276Z,4.04
2023-01-12T15:02:59.276Z,4.02
2023-01-12T15:05:38.072Z,4.06
2023-01-12T15:08:11.853Z,4.12
2023-01-12T15:10:47.501Z,4.19
2023-01-12T15:13:35.537Z,4.21
2023-01-12T15:16:29.147Z,4.24
2023-01-12T15:19:21.545Z,4.29
2023-01-12T15:22:12.026Z,4.28
2023-01-12T15:25:03.741Z,4.22
2023-01-12T15:27:36.761Z,4.18
2023-01-12T15:30:10.878Z,4.17
2023-01-12T15:32:48.064Z,4.14
2023-01-12T15:35:24.904Z,4.14
2023-01-12T15:38:01.745Z,4.17
2023-01-12T15:40:36.880Z,4.07
2023-01-12T15:43:20.388Z,4.10
2023-01-12T15:45:53.178Z,4.07
2023-01-12T15:48:26.457Z,4.02
2023-01-12T15:51:00.533Z,3.93
2023-01-12T15:53:33.994Z,3.89
2023-01-12T15:56:10.164Z,3.97
2023-01-12T15:58:43.193Z,4.01
2023-01-12T16:01:21.146Z,4.02
2023-01-12T16:04:24.945Z,3.98
2023-01-12T16:06:50.346Z,3.99
2023-01-12T16:09:23.095Z,4.04
2023-01-12T16:11:56.095Z,4.03
2023-01-12T16:14:29.026Z,4.02
2023-01-12T16:17:02.533Z,4.00
2023-01-12T16:19:43.348Z,3.97
2023-01-12T16:22:26.829Z,3.87
2023-01-12T16:24:59.891Z,3.79
2023-01-12T16:27:32.951Z,3.74
2023-01-12T16:30:11.547Z,3.67
2023-01-12T16:32:47.477Z,3.68
2023-01-12T16:35:21.878Z,3.79
2023-01-12T16:37:58.977Z,3.85
2023-01-12T16:40:32.430Z,3.83
2023-01-12T16:43:05.507Z,3.85
2023-01-12T16:45:43.944Z,3.87
2023-01-12T16:48:16.617Z,3.85
2023-01-12T16:50:49.733Z,3.89
2023-01-12T16:53:22.985Z,3.89
2023-01-12T16:55:55.853Z,3.93
2023-01-12T16:58:28.687Z,3.80
2023-01-12T17:01:01.859Z,3.94
2023-01-12T17:03:36.433Z,3.93
2023-01-12T17:06:16.865Z,3.88
2023-01-12T17:08:49.978Z,3.91
2023-01-12T17:11:28.381Z,3.80
2023-01-12T17:14:01.780Z,3.89
2023-01-12T17:16:34.839Z,3.82
2023-01-12T17:19:08.157Z,3.73
2023-01-12T17:21:42.148Z,3.65
2023-01-12T17:24:17.145Z,3.64
2023-01-12T17:26:52.700Z,3.51
2023-01-12T17:29:27.256Z,3.52
2023-01-12T17:32:11.154Z,3.65
2023-01-12T17:34:48.484Z,3.69
2023-01-12T17:37:22.353Z,3.76
2023-01-12T17:39:56.042Z,3.71
2023-01-12T17:42:48.789Z,3.72
2023-01-12T17:45:22.494Z,3.83
2023-01-12T17:47:56.209Z,3.87
2023-01-12T17:50:29.517Z,3.84
2023-01-12T17:53:02.493Z,3.82
2023-01-12T17:55:43.578Z,3.86
2023-01-12T17:58:21.726Z,3.88
2023-01-12T18:00:55.090Z,3.88
2023-01-12T18:03:28.434Z,3.90
2023-01-12T18:06:09.037Z,3.79
2023-01-12T18:08:50.353Z,3.73
2023-01-12T18:11:23.518Z,3.78
2023-01-12T18:13:56.595Z,3.78
2023-01-12T18:16:30.969Z,3.76
2023-01-12T18:19:10.831Z,3.78
2023-01-12T18:21:44.439Z,3.78
2023-01-12T18:24:17.590Z,3.90
2023-01-12T18:26:51.469Z,3.90
2023-01-12T18:29:24.306Z,3.97
2023-01-12T18:31:57.331Z,4.01
2023-01-12T18:34:30.562Z,4.08
2023-01-12T18:37:03.601Z,4.15
2023-01-12T18:39:36.393Z,4.18
2023-01-12T18:42:29.643Z,4.19
2023-01-12T18:45:04.989Z,4.19
2023-01-12T18:47:56.616Z,4.15
2023-01-12T18:50:49.386Z,4.22
2023-01-12T18:53:25.659Z,4.21
2023-01-12T18:55:59.739Z,4.19
2023-01-12T18:58:34.925Z,4.08
2023-01-12T19:01:07.936Z,3.87
2023-01-12T19:03:41.923Z,3.91
2023-01-12T19:06:28.843Z,3.94
2023-01-12T19:09:20.419Z,3.92
2023-01-12T19:11:53.472Z,3.74
2023-01-12T19:14:45.370Z,3.77
2023-01-12T19:17:33.392Z,3.84
2023-01-12T19:20:16.803Z,3.90
2023-01-12T19:23:08.853Z,3.90
2023-01-12T19:26:01.163Z,3.96
2023-01-12T19:28:36.668Z,3.88
2023-01-12T19:31:15.569Z,3.85
2023-01-12T19:33:48.561Z,4.06
2023-01-12T19:36:21.697Z,4.04
2023-01-12T19:38:55.147Z,4.05
2023-01-12T19:41:46.901Z,4.03
2023-01-12T19:44:19.822Z,3.94
2023-01-12T19:46:53.121Z,3.96
2023-01-12T19:49:26.186Z,3.88
2023-01-12T19:51:59.917Z,3.93
2023-01-12T19:54:33.557Z,3.89
2023-01-12T19:57:06.814Z,3.75
2023-01-12T19:59:40.076Z,3.91
2023-01-12T20:02:15.013Z,3.93
2023-01-12T20:04:47.979Z,3.88
2023-01-12T20:07:21.574Z,3.98
2023-01-12T20:09:54.432Z,3.97
2023-01-12T20:12:27.108Z,3.99
2023-01-12T20:15:00.201Z,3.96
2023-01-12T20:17:34.083Z,3.94
2023-01-12T20:20:08.838Z,3.94
2023-01-12T20:22:43.089Z,3.96
2023-01-12T20:25:16.169Z,3.95
2023-01-12T20:27:49.883Z,3.97
2023-01-12T20:30:39.041Z,3.92
2023-01-12T20:33:15.316Z,3.90
2023-01-12T20:35:50.158Z,3.80
2023-01-12T20:38:23.575Z,3.69
2023-01-12T20:40:56.796Z,3.59
2023-01-12T20:43:30.303Z,3.72
2023-01-12T20:46:03.727Z,3.78
2023-01-12T20:48:36.870Z,3.86
2023-01-12T20:51:14.680Z,3.85
2023-01-12T20:53:47.579Z,3.97
2023-01-12T20:56:21.458Z,3.98
2023-01-12T20:58:54.932Z,4.04
2023-01-12T21:01:28.513Z,3.95
2023-01-12T21:04:02.128Z,3.99
2023-01-12T21:06:35.536Z,3.97
2023-01-12T21:09:08.554Z,3.91
2023-01-12T21:11:42.772Z,3.93
2023-01-12T21:14:15.915Z,3.90
2023-01-12T21:16:50.293Z,3.87
2023-01-12T21:19:23.438Z,3.86
2023-01-12T21:21:56.402Z,3.83
2023-01-12T21:24:29.658Z,3.74
2023-01-12T21:27:02.136Z,3.75
2023-01-12T21:29:35.398Z,3.79
2023-01-12T21:32:08.211Z,3.78
2023-01-12T21:34:41.357Z,3.71
2023-01-12T21:37:14.151Z,3.68
2023-01-12T21:39:47.343Z,3.81
2023-01-12T21:42:39.014Z,3.90
2023-01-12T21:45:12.632Z,3.90
2023-01-12T21:47:46.827Z,3.84
2023-01-12T21:50:20.174Z,3.86
2023-01-12T21:52:53.213Z,3.79
2023-01-12T21:55:26.864Z,3.80
2023-01-12T21:58:00.108Z,3.76
2023-01-12T22:00:33.587Z,3.73
2023-01-12T22:03:06.950Z,3.60
2023-01-12T22:05:40.429Z,3.53
2023-01-12T22:08:14.656Z,3.53
2023-01-12T22:10:47.667Z,3.46
2023-01-12T22:13:20.748Z,3.42
2023-01-12T22:15:53.998Z,3.41
2023-01-12T22:18:27.101Z,3.41
2023-01-12T22:21:11.411Z,3.45
2023-01-12T22:23:44.413Z,3.50
2023-01-12T22:26:18.655Z,3.51
2023-01-12T22:28:51.751Z,3.52
2023-01-12T22:31:26.682Z,3.46
2023-01-12T22:34:07.640Z,3.41
2023-01-12T22:36:46.761Z,3.39
2023-01-12T22:39:19.811Z,3.42
2023-01-12T22:41:53.358Z,3.40
2023-01-12T22:44:28.755Z,3.42
2023-01-12T22:47:01.734Z,3.40
2023-01-12T22:49:36.050Z,3.36
2023-01-12T22:52:10.875Z,3.34
2023-01-12T22:54:43.714Z,3.33
2023-01-12T22:57:16.479Z,3.34
2023-01-12T22:59:49.404Z,3.30
2023-01-12T23:02:41.297Z,3.36
2023-01-12T23:05:14.431Z,3.39
2023-01-12T23:07:47.509Z,3.46
2023-01-12T23:10:20.051Z,3.58
2023-01-12T23:13:22.971Z,3.59
2023-01-12T23:15:58.983Z,3.74
2023-01-12T23:18:33.056Z,3.70
2023-01-12T23:21:18.152Z,3.79
2023-01-12T23:23:53.447Z,3.81
2023-01-12T23:26:29.620Z,3.78
2023-01-12T23:29:03.616Z,3.77
2023-01-12T23:31:36.760Z,3.76
2023-01-12T23:34:09.409Z,3.75
2023-01-12T23:36:43.237Z,3.70
2023-01-12T23:39:16.129Z,3.74
2023-01-12T23:41:49.096Z,3.68
2023-01-12T23:44:21.719Z,3.63
2023-01-12T23:46:55.830Z,3.60
2023-01-12T23:49:28.737Z,3.60
2023-01-12T23:52:01.790Z,3.53
2023-01-12T23:54:35.455Z,3.45
2023-01-12T23:57:08.396Z,3.52
2023-01-12T23:59:42.484Z,3.52
